createdAt,value
2023-05-05T00:00:41.117Z,101486.66
2023-05-05T00:03:08.025Z,101486.81
2023-05-05T00:05:34.729Z,101489.78
2023-05-05T00:08:01.744Z,101487.41
2023-05-05T00:10:28.416Z,101481.69
2023-05-05T00:12:55.136Z,101488.88
2023-05-05T00:15:22.050Z,101483.28
2023-05-05T00:17:48.930Z,101478.13
2023-05-05T00:20:15.915Z,101468.25
2023-05-05T00:22:42.532Z,101476.94
2023-05-05T00:25:09.488Z,101470.72
2023-05-05T00:27:37.002Z,101478.97
2023-05-05T00:30:05.991Z,101461.75
2023-05-05T00:32:32.996Z,101469.59
2023-05-05T00:35:00.015Z,101476.03
2023-05-05T00:37:27.173Z,101467.94
2023-05-05T00:39:53.945Z,101465.63
2023-05-05T00:42:20.714Z,101468.25
2023-05-05T00:44:47.893Z,101456.09
2023-05-05T00:47:16.846Z,101451.94
2023-05-05T00:49:43.705Z,101458.63
2023-05-05T00:52:11.604Z,101459.06
2023-05-05T00:54:41.727Z,101451.03
2023-05-05T00:57:11.113Z,101450.56
2023-05-05T00:59:41.628Z,101445.69
2023-05-05T01:02:15.994Z,101461.88
2023-05-05T01:04:44.168Z,101457.91
2023-05-05T01:07:13.631Z,101453.44
2023-05-05T01:10:20.971Z,101451.50
2023-05-05T01:13:03.880Z,101444.81
2023-05-05T01:15:35.215Z,101448.69
2023-05-05T01:18:32.664Z,101443.13
2023-05-05T01:21:07.470Z,101436.63
2023-05-05T01:23:46.372Z,101443.97
2023-05-05T01:26:34.977Z,101437.72
2023-05-05T01:29:07.882Z,101437.59
2023-05-05T01:31:40.539Z,101449.00
2023-05-05T01:34:09.968Z,101444.09
2023-05-05T01:36:42.404Z,101438.19
2023-05-05T01:39:14.886Z,101444.97
2023-05-05T01:41:51.920Z,101446.41
2023-05-05T01:44:20.371Z,101442.03
2023-05-05T01:46:50.472Z,101447.47
2023-05-05T01:49:17.712Z,101439.19
2023-05-05T01:51:49.024Z,101443.06
2023-05-05T01:54:18.740Z,101438.81
2023-05-05T01:56:46.632Z,101436.88
2023-05-05T01:59:14.019Z,101438.31
2023-05-05T02:01:41.920Z,101441.28
2023-05-05T02:04:10.079Z,101435.97
2023-05-05T02:06:39.934Z,101420.28
2023-05-05T02:09:08.845Z,101435.59
2023-05-05T02:11:36.490Z,101430.13
2023-05-05T02:14:04.130Z,101434.81
2023-05-05T02:16:32.369Z,101436.78
2023-05-05T02:19:04.711Z,101440.47
2023-05-05T02:21:32.149Z,101438.56
2023-05-05T02:23:59.207Z,101442.81
2023-05-05T02:26:26.859Z,101441.25
2023-05-05T02:29:17.756Z,101443.03
2023-05-05T02:31:49.389Z,101440.09
2023-05-05T02:34:26.222Z,101438.03
2023-05-05T02:36:58.578Z,101438.91
2023-05-05T02:39:38.661Z,101429.69
2023-05-05T02:42:06.000Z,101442.22
2023-05-05T02:44:33.821Z,101434.50
2023-05-05T02:47:03.938Z,101429.69
2023-05-05T02:49:30.691Z,101442.34
2023-05-05T02:51:58.126Z,101435.81
2023-05-05T02:54:25.318Z,101438.16
2023-05-05T02:56:54.076Z,101438.56
2023-05-05T02:59:49.622Z,101436.84
2023-05-05T03:02:29.022Z,101446.34
2023-05-05T03:05:00.922Z,101438.34
2023-05-05T03:07:33.891Z,101436.75
2023-05-05T03:10:10.316Z,101430.75
2023-05-05T03:12:56.227Z,101435.19
2023-05-05T03:15:28.152Z,101436.41
2023-05-05T03:17:56.959Z,101428.75
2023-05-05T03:20:24.609Z,101434.88
2023-05-05T03:22:56.329Z,101434.31
2023-05-05T03:25:23.120Z,101429.66
2023-05-05T03:27:49.755Z,101426.66
2023-05-05T03:30:16.556Z,101429.16
2023-05-05T03:32:43.219Z,101422.63
2023-05-05T03:35:10.208Z,101429.41
2023-05-05T03:37:36.876Z,101433.00
2023-05-05T03:40:04.010Z,101436.88
2023-05-05T03:42:33.761Z,101431.09
2023-05-05T03:45:00.525Z,101423.25
2023-05-05T03:47:27.259Z,101425.41
2023-05-05T03:49:53.848Z,101428.13
2023-05-05T03:52:20.934Z,101421.34
2023-05-05T03:54:47.555Z,101427.56
2023-05-05T03:57:14.250Z,101423.59
2023-05-05T03:59:40.948Z,101416.97
2023-05-05T04:02:08.004Z,101427.69
2023-05-05T04:04:34.957Z,101419.88
2023-05-05T04:07:01.821Z,101418.19
2023-05-05T04:09:28.482Z,101414.72
2023-05-05T04:11:55.171Z,101409.56
2023-05-05T04:14:22.381Z,101410.88
2023-05-05T04:16:51.536Z,101411.75
2023-05-05T04:19:24.026Z,101408.63
2023-05-05T04:21:53.763Z,101419.19
2023-05-05T04:24:24.703Z,101428.03
2023-05-05T04:26:52.158Z,101432.91
2023-05-05T04:29:18.855Z,101436.28
2023-05-05T04:31:45.756Z,101443.59
2023-05-05T04:34:12.539Z,101433.53
2023-05-05T04:36:39.315Z,101432.22
2023-05-05T04:39:07.198Z,101442.56
2023-05-05T04:41:34.040Z,101445.50
2023-05-05T04:44:00.693Z,101444.34
2023-05-05T04:46:29.656Z,101444.75
2023-05-05T04:49:01.299Z,101450.34
2023-05-05T04:51:27.962Z,101447.50
2023-05-05T04:53:54.664Z,101453.03
2023-05-05T04:56:21.494Z,101456.38
2023-05-05T04:58:48.109Z,101450.84
2023-05-05T05:01:14.755Z,101463.34
2023-05-05T05:03:42.151Z,101453.09
2023-05-05T05:06:09.210Z,101453.69
2023-05-05T05:08:35.794Z,101451.50
2023-05-05T05:11:02.465Z,101454.91
2023-05-05T05:13:29.163Z,101462.59
2023-05-05T05:15:57.468Z,101471.69
2023-05-05T05:18:24.398Z,101472.31
2023-05-05T05:20:51.331Z,101486.69
2023-05-05T05:23:20.958Z,101475.03
2023-05-05T05:25:48.330Z,101474.13
2023-05-05T05:28:17.557Z,101480.47
2023-05-05T05:30:44.578Z,101482.13
2023-05-05T05:33:11.485Z,101481.63
2023-05-05T05:35:44.124Z,101463.44
2023-05-05T05:38:10.881Z,101471.44
2023-05-05T05:40:38.090Z,101475.88
2023-05-05T05:43:04.893Z,101479.75
2023-05-05T05:45:31.866Z,101485.88
2023-05-05T05:47:58.768Z,101486.63
2023-05-05T05:50:28.663Z,101493.75
2023-05-05T05:52:58.693Z,101479.22
2023-05-05T05:55:25.448Z,101468.78
2023-05-05T05:57:52.175Z,101485.50
2023-05-05T06:00:19.303Z,101490.41
2023-05-05T06:02:46.084Z,101485.00
2023-05-05T06:05:15.751Z,101475.16
2023-05-05T06:07:42.410Z,101484.84
2023-05-05T06:10:25.586Z,101489.13
2023-05-05T06:12:52.933Z,101491.31
2023-05-05T06:15:19.714Z,101488.47
2023-05-05T06:17:48.828Z,101492.88
2023-05-05T06:20:15.690Z,101481.66
2023-05-05T06:22:42.473Z,101493.63
2023-05-05T06:25:09.379Z,101482.38
2023-05-05T06:27:36.059Z,101481.00
2023-05-05T06:30:02.763Z,101493.94
2023-05-05T06:32:29.440Z,101479.84
2023-05-05T06:35:01.107Z,101500.28
2023-05-05T06:37:27.799Z,101496.19
2023-05-05T06:39:54.424Z,101495.84
2023-05-05T06:42:21.227Z,101483.31
2023-05-05T06:44:47.965Z,101493.94
2023-05-05T06:47:14.666Z,101491.34
2023-05-05T06:49:41.283Z,101494.34
2023-05-05T06:52:08.446Z,101494.03
2023-05-05T06:54:35.150Z,101505.53
2023-05-05T06:57:01.982Z,101492.97
2023-05-05T06:59:28.743Z,101496.00
2023-05-05T07:01:56.593Z,101497.91
2023-05-05T07:04:32.690Z,101494.59
2023-05-05T07:06:59.307Z,101500.59
2023-05-05T07:09:26.012Z,101510.16
2023-05-05T07:11:52.681Z,101498.44
2023-05-05T07:14:20.099Z,101506.63
2023-05-05T07:16:47.731Z,101507.13
2023-05-05T07:19:14.419Z,101516.38
2023-05-05T07:21:41.218Z,101510.69
2023-05-05T07:24:08.024Z,101509.03
2023-05-05T07:26:35.063Z,101514.50
2023-05-05T07:29:02.685Z,101516.66
2023-05-05T07:31:29.358Z,101517.84
2023-05-05T07:33:56.459Z,101514.72
2023-05-05T07:36:23.294Z,101525.84
2023-05-05T07:38:50.034Z,101516.72
2023-05-05T07:41:20.148Z,101526.72
2023-05-05T07:43:46.924Z,101524.69
2023-05-05T07:46:14.133Z,101521.94
2023-05-05T07:48:41.851Z,101511.97
2023-05-05T07:51:09.378Z,101522.06
2023-05-05T07:53:36.339Z,101520.19
2023-05-05T07:56:03.387Z,101510.91
2023-05-05T07:58:30.088Z,101513.91
2023-05-05T08:01:04.318Z,101504.66
2023-05-05T08:03:31.359Z,101522.44
2023-05-05T08:09:42.112Z,101508.50
2023-05-05T08:12:09.760Z,101516.63
2023-05-05T08:14:49.415Z,101516.19
2023-05-05T08:17:17.485Z,101513.66
2023-05-05T08:19:44.419Z,101505.47
2023-05-05T08:22:14.924Z,101506.44
2023-05-05T08:24:44.524Z,101515.97
2023-05-05T08:27:14.369Z,101518.44
2023-05-05T08:29:40.942Z,101505.63
2023-05-05T08:32:10.630Z,101510.53
2023-05-05T08:34:40.462Z,101488.28
2023-05-05T08:37:10.088Z,101501.28
2023-05-05T08:39:36.788Z,101498.50
2023-05-05T08:42:03.513Z,101499.66
2023-05-05T08:44:30.226Z,101498.19
2023-05-05T08:46:57.997Z,101500.81
2023-05-05T08:49:25.952Z,101502.16
2023-05-05T08:51:54.257Z,101499.75
2023-05-05T08:54:27.807Z,101496.66
2023-05-05T08:56:57.658Z,101513.44
2023-05-05T08:59:25.693Z,101523.63
2023-05-05T09:01:54.208Z,101507.06
2023-05-05T09:04:21.181Z,101512.13
2023-05-05T09:06:47.976Z,101501.91
2023-05-05T09:09:14.898Z,101508.50
2023-05-05T09:11:42.346Z,101510.03
2023-05-05T09:14:09.379Z,101504.44
2023-05-05T09:16:36.060Z,101499.41
2023-05-05T09:19:06.047Z,101498.84
2023-05-05T09:21:33.081Z,101495.78
2023-05-05T09:24:10.923Z,101494.09
2023-05-05T09:26:47.752Z,101497.16
2023-05-05T09:29:22.020Z,101503.59
2023-05-05T09:32:18.334Z,101493.38
2023-05-05T09:34:58.084Z,101488.00
2023-05-05T09:37:31.569Z,101489.94
2023-05-05T09:40:01.283Z,101488.28
2023-05-05T09:42:28.272Z,101501.75
2023-05-05T09:44:55.408Z,101481.41
2023-05-05T09:47:34.945Z,101497.34
2023-05-05T09:50:02.256Z,101488.44
2023-05-05T09:52:29.118Z,101494.19
2023-05-05T09:54:57.168Z,101493.03
2023-05-05T09:57:28.900Z,101494.34
2023-05-05T09:59:57.561Z,101496.59
2023-05-05T10:02:34.926Z,101500.56
2023-05-05T10:05:13.914Z,101489.66
2023-05-05T10:07:45.169Z,101488.66
2023-05-05T10:10:17.720Z,101492.22
2023-05-05T10:12:47.624Z,101489.16
2023-05-05T10:15:23.108Z,101483.94
2023-05-05T10:18:05.828Z,101489.72
2023-05-05T10:20:36.762Z,101489.47
2023-05-05T10:23:08.343Z,101489.34
2023-05-05T10:25:44.820Z,101489.56
2023-05-05T10:28:22.575Z,101475.38
2023-05-05T10:30:56.904Z,101486.50
2023-05-05T10:33:34.044Z,101482.56
2023-05-05T10:36:06.638Z,101479.63
2023-05-05T10:38:37.352Z,101480.28
2023-05-05T10:41:04.754Z,101475.38
2023-05-05T10:43:32.393Z,101474.53
2023-05-05T10:45:59.794Z,101477.69
2023-05-05T10:48:57.353Z,101469.84
2023-05-05T10:51:39.906Z,101470.50
2023-05-05T10:54:24.749Z,101462.94
2023-05-05T10:56:51.954Z,101457.72
2023-05-05T10:59:40.532Z,101459.81
2023-05-05T11:02:26.899Z,101448.78
2023-05-05T11:05:15.257Z,101448.06
2023-05-05T11:07:43.305Z,101445.66
2023-05-05T11:10:12.324Z,101452.41
2023-05-05T11:13:03.702Z,101437.59
2023-05-05T11:15:30.820Z,101446.25
2023-05-05T11:18:08.200Z,101442.72
2023-05-05T11:20:43.685Z,101459.22
2023-05-05T11:23:10.882Z,101448.06
2023-05-05T11:25:38.226Z,101445.94
2023-05-05T11:28:16.522Z,101435.44
2023-05-05T11:30:55.287Z,101435.50
2023-05-05T11:33:38.356Z,101431.34
2023-05-05T11:36:09.707Z,101421.41
2023-05-05T11:38:55.768Z,101416.53
2023-05-05T11:41:35.806Z,101405.63
2023-05-05T11:47:01.130Z,101411.03
2023-05-05T11:49:31.660Z,101401.09
2023-05-05T11:52:03.676Z,101389.22
2023-05-05T11:54:31.542Z,101396.25
2023-05-05T11:57:07.758Z,101382.13
2023-05-05T11:59:37.342Z,101381.59
2023-05-05T12:02:04.722Z,101381.22
2023-05-05T12:04:32.139Z,101390.25
2023-05-05T12:06:59.382Z,101389.47
2023-05-05T12:09:26.975Z,101385.00
2023-05-05T12:11:54.511Z,101383.00
2023-05-05T12:14:22.021Z,101391.63
2023-05-05T12:16:56.341Z,101386.94
2023-05-05T12:19:23.748Z,101379.41
2023-05-05T12:21:50.385Z,101377.06
2023-05-05T12:24:17.144Z,101367.59
2023-05-05T12:26:43.785Z,101371.41
2023-05-05T12:29:10.952Z,101372.31
2023-05-05T12:31:42.142Z,101373.13
2023-05-05T12:34:10.268Z,101372.47
2023-05-05T12:36:37.649Z,101365.13
2023-05-05T12:39:05.411Z,101373.59
2023-05-05T12:41:33.081Z,101371.75
2023-05-05T12:44:03.363Z,101364.09
2023-05-05T12:46:31.259Z,101361.06
2023-05-05T12:49:05.620Z,101355.88
2023-05-05T12:51:36.724Z,101358.75
2023-05-05T12:54:12.531Z,101356.78
2023-05-05T12:56:47.322Z,101345.09
2023-05-05T12:59:23.043Z,101355.13
2023-05-05T13:01:50.356Z,101353.03
2023-05-05T13:04:19.271Z,101350.25
2023-05-05T13:06:47.556Z,101347.09
2023-05-05T13:09:27.018Z,101347.59
2023-05-05T13:11:54.748Z,101334.56
2023-05-05T13:14:21.723Z,101331.91
2023-05-05T13:16:48.401Z,101329.72
2023-05-05T13:19:17.717Z,101330.56
2023-05-05T13:21:44.319Z,101318.88
2023-05-05T13:24:21.320Z,101322.88
2023-05-05T13:26:53.196Z,101317.34
2023-05-05T13:29:19.834Z,101320.56
2023-05-05T13:31:46.587Z,101306.88
2023-05-05T13:34:13.342Z,101312.88
2023-05-05T13:36:39.977Z,101308.06
2023-05-05T13:39:06.987Z,101291.19
2023-05-05T13:41:33.610Z,101305.38
2023-05-05T13:44:32.949Z,101311.22
2023-05-05T13:47:02.253Z,101297.72
2023-05-05T13:49:28.890Z,101286.00
2023-05-05T13:51:56.456Z,101285.53
2023-05-05T13:54:23.065Z,101287.16
2023-05-05T13:56:49.690Z,101286.16
2023-05-05T13:59:16.298Z,101279.31
2023-05-05T14:01:42.885Z,101283.19
2023-05-05T14:04:09.579Z,101278.66
2023-05-05T14:06:36.247Z,101268.31
2023-05-05T14:09:05.878Z,101272.47
2023-05-05T14:11:32.884Z,101270.31
2023-05-05T14:13:59.594Z,101258.63
2023-05-05T14:16:26.277Z,101259.16
2023-05-05T14:18:52.878Z,101251.63
2023-05-05T14:21:19.526Z,101242.56
2023-05-05T14:23:46.284Z,101253.75
2023-05-05T14:26:12.849Z,101247.88
2023-05-05T14:28:39.479Z,101254.97
2023-05-05T14:31:06.162Z,101248.75
2023-05-05T14:33:33.184Z,101250.34
2023-05-05T14:35:59.994Z,101246.41
2023-05-05T14:38:26.693Z,101237.44
2023-05-05T14:40:53.329Z,101233.72
2023-05-05T14:43:20.776Z,101231.81
2023-05-05T14:45:47.483Z,101236.56
2023-05-05T14:48:14.231Z,101245.31
2023-05-05T14:50:42.541Z,101234.94
2023-05-05T14:53:09.301Z,101239.59
2023-05-05T14:55:36.038Z,101242.78
2023-05-05T14:58:02.614Z,101241.56
2023-05-05T15:00:29.323Z,101243.38
2023-05-05T15:02:56.173Z,101237.25
2023-05-05T15:05:22.971Z,101236.91
2023-05-05T15:07:49.805Z,101236.78
2023-05-05T15:10:17.287Z,101234.63
2023-05-05T15:12:45.962Z,101232.94
2023-05-05T15:15:12.755Z,101228.44
2023-05-05T15:17:43.241Z,101228.44
2023-05-05T15:20:20.478Z,101219.56
2023-05-05T15:22:48.452Z,101222.31
2023-05-05T15:25:16.469Z,101210.59
2023-05-05T15:27:43.367Z,101208.44
2023-05-05T15:30:11.511Z,101209.00
2023-05-05T15:32:38.231Z,101208.34
2023-05-05T15:35:05.146Z,101210.50
2023-05-05T15:37:31.835Z,101210.72
2023-05-05T15:39:58.719Z,101213.91
2023-05-05T15:42:25.540Z,101212.78
2023-05-05T15:44:52.390Z,101213.06
2023-05-05T15:47:19.019Z,101202.78
2023-05-05T15:49:45.631Z,101209.09
2023-05-05T15:52:12.917Z,101210.59
2023-05-05T15:54:39.599Z,101209.84
2023-05-05T15:57:06.169Z,101203.44
2023-05-05T15:59:32.889Z,101204.16
2023-05-05T16:01:59.504Z,101201.66
2023-05-05T16:04:26.178Z,101206.88
2023-05-05T16:06:53.390Z,101205.09
2023-05-05T16:09:20.272Z,101197.28
2023-05-05T16:11:47.494Z,101206.16
2023-05-05T16:14:14.121Z,101208.06
2023-05-05T16:16:41.043Z,101207.75
2023-05-05T16:19:07.693Z,101199.66
2023-05-05T16:21:34.301Z,101209.09
2023-05-05T16:24:01.035Z,101199.75
2023-05-05T16:26:27.782Z,101191.59
2023-05-05T16:28:54.423Z,101199.75
2023-05-05T16:31:21.202Z,101193.94
2023-05-05T16:33:47.908Z,101181.41
2023-05-05T16:36:14.702Z,101192.63
2023-05-05T16:38:41.738Z,101190.44
2023-05-05T16:41:08.589Z,101194.69
2023-05-05T16:43:37.269Z,101191.75
2023-05-05T16:46:04.346Z,101198.00
2023-05-05T16:48:43.240Z,101185.81
2023-05-05T16:51:10.106Z,101196.91
2023-05-05T16:53:36.793Z,101186.16
2023-05-05T16:58:41.114Z,101183.41
2023-05-05T17:01:07.830Z,101189.66
2023-05-05T17:03:34.468Z,101185.09
2023-05-05T17:08:49.304Z,101175.31
2023-05-05T17:11:15.916Z,101171.69
2023-05-05T17:13:42.773Z,101165.53
2023-05-05T17:16:09.429Z,101179.00
2023-05-05T17:18:37.125Z,101184.56
2023-05-05T17:21:04.069Z,101177.56
2023-05-05T17:23:30.736Z,101180.63
2023-05-05T17:26:12.451Z,101171.00
2023-05-05T17:28:39.058Z,101158.72
2023-05-05T17:31:05.876Z,101170.72
2023-05-05T17:33:32.554Z,101171.69
2023-05-05T17:35:59.357Z,101172.66
2023-05-05T17:38:25.968Z,101168.91
2023-05-05T17:40:52.577Z,101163.47
2023-05-05T17:43:19.145Z,101165.16
2023-05-05T17:45:46.804Z,101173.50
2023-05-05T17:48:13.744Z,101165.97
2023-05-05T17:50:43.194Z,101174.03
2023-05-05T17:53:11.210Z,101176.28
2023-05-05T17:55:38.020Z,101170.69
2023-05-05T17:58:04.700Z,101163.44
2023-05-05T18:00:31.464Z,101169.03
2023-05-05T18:02:58.384Z,101160.94
2023-05-05T18:05:25.129Z,101161.63
2023-05-05T18:07:51.777Z,101154.28
2023-05-05T18:10:19.315Z,101172.44
2023-05-05T18:12:46.084Z,101165.19
2023-05-05T18:15:13.146Z,101161.66
2023-05-05T18:17:40.473Z,101162.44
2023-05-05T18:20:07.645Z,101167.75
2023-05-05T18:22:34.693Z,101178.53
2023-05-05T18:25:01.477Z,101173.00
2023-05-05T18:27:29.190Z,101175.22
2023-05-05T18:29:55.785Z,101188.44
2023-05-05T18:32:22.522Z,101175.03
2023-05-05T18:34:49.417Z,101182.47
2023-05-05T18:37:16.034Z,101177.00
2023-05-05T18:39:44.043Z,101189.88
2023-05-05T18:42:13.080Z,101193.97
2023-05-05T18:44:40.049Z,101200.41
2023-05-05T18:47:07.961Z,101202.59
2023-05-05T18:49:37.564Z,101201.09
2023-05-05T18:52:04.506Z,101192.59
2023-05-05T18:54:31.346Z,101212.38
2023-05-05T18:56:59.425Z,101212.47
2023-05-05T18:59:26.397Z,101199.66
2023-05-05T19:01:53.076Z,101204.69
2023-05-05T19:04:30.646Z,101202.38
2023-05-05T19:06:58.607Z,101185.59
2023-05-05T19:09:25.497Z,101178.25
2023-05-05T19:11:52.107Z,101187.56
2023-05-05T19:14:18.764Z,101192.69
2023-05-05T19:16:45.759Z,101184.31
2023-05-05T19:19:12.638Z,101196.91
2023-05-05T19:21:39.473Z,101209.78
2023-05-05T19:24:09.994Z,101215.41
2023-05-05T19:26:36.726Z,101213.19
2023-05-05T19:29:03.460Z,101234.66
2023-05-05T19:31:31.394Z,101222.06
2023-05-05T19:34:00.977Z,101235.38
2023-05-05T19:36:28.337Z,101224.69
2023-05-05T19:38:55.887Z,101217.28
2023-05-05T19:41:22.665Z,101233.09
2023-05-05T19:43:50.055Z,101220.41
2023-05-05T19:46:19.717Z,101219.53
2023-05-05T19:48:46.551Z,101229.25
2023-05-05T19:51:13.423Z,101229.63
2023-05-05T19:53:42.995Z,101229.72
2023-05-05T19:56:10.102Z,101229.03
2023-05-05T19:58:55.372Z,101233.09
2023-05-05T20:01:22.324Z,101227.13
2023-05-05T20:03:49.322Z,101224.44
2023-05-05T20:06:19.082Z,101226.13
2023-05-05T20:08:45.715Z,101226.78
2023-05-05T20:11:17.252Z,101228.59
2023-05-05T20:13:44.060Z,101230.81
2023-05-05T20:16:10.979Z,101235.16
2023-05-05T20:18:37.653Z,101240.22
2023-05-05T20:21:04.719Z,101246.53
2023-05-05T20:23:32.078Z,101240.53
2023-05-05T20:25:59.198Z,101240.88
2023-05-05T20:28:26.147Z,101245.22
2023-05-05T20:30:52.771Z,101238.19
2023-05-05T20:36:01.355Z,101228.06
2023-05-05T20:38:27.922Z,101229.00
2023-05-05T20:40:54.646Z,101232.47
2023-05-05T20:43:21.273Z,101240.63
2023-05-05T20:45:47.958Z,101244.09
2023-05-05T20:48:14.879Z,101253.84
2023-05-05T20:50:42.160Z,101254.25
2023-05-05T20:53:11.012Z,101246.28
2023-05-05T20:55:37.681Z,101238.97
2023-05-05T20:58:06.906Z,101233.03
2023-05-05T21:00:34.057Z,101229.09
2023-05-05T21:03:02.787Z,101230.06
2023-05-05T21:05:30.357Z,101231.19
2023-05-05T21:07:58.516Z,101240.63
2023-05-05T21:10:27.762Z,101245.28
2023-05-05T21:12:54.817Z,101249.38
2023-05-05T21:15:21.603Z,101240.91
2023-05-05T21:17:48.520Z,101236.41
2023-05-05T21:20:16.442Z,101238.53
2023-05-05T21:22:43.278Z,101220.47
2023-05-05T21:25:19.279Z,101216.69
2023-05-05T21:27:47.151Z,101217.34
2023-05-05T21:30:14.876Z,101207.69
2023-05-05T21:32:42.264Z,101215.56
2023-05-05T21:35:09.431Z,101217.34
2023-05-05T21:37:39.665Z,101206.34
2023-05-05T21:40:13.436Z,101215.25
2023-05-05T21:42:41.362Z,101225.75
2023-05-05T21:45:08.726Z,101214.28
2023-05-05T21:47:35.587Z,101216.50
2023-05-05T21:50:02.321Z,101217.22
2023-05-05T21:52:29.059Z,101224.38
2023-05-05T21:54:56.065Z,101220.91
2023-05-05T21:57:22.674Z,101228.38
2023-05-05T21:59:49.552Z,101234.72
2023-05-05T22:02:16.138Z,101235.59
2023-05-05T22:04:42.937Z,101249.19
2023-05-05T22:07:09.543Z,101253.06
2023-05-05T22:09:36.199Z,101238.69
2023-05-05T22:12:02.952Z,101250.00
2023-05-05T22:14:29.748Z,101246.94
2023-05-05T22:16:56.493Z,101247.44
2023-05-05T22:19:23.193Z,101241.34
2023-05-05T22:21:49.947Z,101245.38
2023-05-05T22:24:16.864Z,101243.13
2023-05-05T22:26:43.695Z,101236.78
2023-05-05T22:29:11.416Z,101231.63
2023-05-05T22:31:38.578Z,101236.22
2023-05-05T22:34:05.435Z,101230.97
2023-05-05T22:36:32.151Z,101236.63
2023-05-05T22:38:59.064Z,101234.72
2023-05-05T22:41:25.943Z,101236.13
2023-05-05T22:43:52.692Z,101233.03
2023-05-05T22:46:19.328Z,101232.50
2023-05-05T22:48:46.712Z,101239.50
2023-05-05T22:51:13.510Z,101226.81
2023-05-05T22:53:40.338Z,101223.88
2023-05-05T22:56:07.224Z,101231.09
2023-05-05T22:58:34.459Z,101225.19
2023-05-05T23:01:01.143Z,101219.28
2023-05-05T23:03:27.758Z,101209.19
2023-05-05T23:05:54.478Z,101209.47
2023-05-05T23:08:21.607Z,101217.88
2023-05-05T23:10:50.748Z,101217.50
2023-05-05T23:13:17.593Z,101211.97
2023-05-05T23:15:44.804Z,101212.91
2023-05-05T23:18:11.612Z,101217.78
2023-05-05T23:20:38.488Z,101214.31
2023-05-05T23:23:05.254Z,101215.19
2023-05-05T23:25:49.454Z,101210.09
2023-05-05T23:28:16.310Z,101195.88
2023-05-05T23:30:43.289Z,101197.16
2023-05-05T23:33:10.056Z,101201.06
2023-05-05T23:35:39.641Z,101191.78
2023-05-05T23:38:06.920Z,101205.03
2023-05-05T23:40:34.470Z,101195.31
2023-05-05T23:43:01.863Z,101199.06
2023-05-05T23:45:28.880Z,101206.91
2023-05-05T23:47:56.135Z,101208.84
2023-05-05T23:50:22.956Z,101205.22
2023-05-05T23:52:49.773Z,101196.69
2023-05-05T23:55:16.478Z,101207.81
2023-05-05T23:57:43.478Z,101211.56
